createdAt,value
2019-02-22T00:00:36.774Z,931.25
2019-02-22T00:01:36.775Z,931.34
2019-02-22T00:02:36.955Z,931.36
2019-02-22T00:03:36.933Z,931.34
2019-02-22T00:04:36.820Z,931.40
2019-02-22T00:05:36.843Z,931.45
2019-02-22T00:06:36.867Z,931.48
2019-02-22T00:07:36.999Z,931.48
2019-02-22T00:08:36.892Z,931.51
2019-02-22T00:09:37.024Z,931.53
2019-02-22T00:10:37.042Z,931.51
2019-02-22T00:11:36.916Z,931.52
2019-02-22T00:12:37.090Z,931.58
2019-02-22T00:13:37.073Z,931.58
2019-02-22T00:14:37.085Z,931.58
2019-02-22T00:15:37.002Z,931.60
2019-02-22T00:16:37.157Z,931.63
2019-02-22T00:17:37.125Z,931.61
2019-02-22T00:18:37.160Z,931.61
2019-02-22T00:19:37.048Z,931.60
2019-02-22T00:20:37.108Z,931.61
2019-02-22T00:21:37.206Z,931.60
2019-02-22T00:22:37.226Z,931.57
2019-02-22T00:23:37.102Z,931.57
2019-02-22T00:24:37.204Z,931.52
2019-02-22T00:25:37.151Z,931.50
2019-02-22T00:26:37.167Z,931.54
2019-02-22T00:27:37.256Z,931.53
2019-02-22T00:28:37.182Z,931.61
2019-02-22T00:29:37.215Z,931.66
2019-02-22T00:30:37.215Z,931.71
2019-02-22T00:31:37.264Z,931.71
2019-02-22T00:32:37.340Z,931.73
2019-02-22T00:33:37.383Z,931.73
2019-02-22T00:34:37.324Z,931.71
2019-02-22T00:35:37.300Z,931.67
2019-02-22T00:36:37.447Z,931.67
2019-02-22T00:37:37.417Z,931.68
2019-02-22T00:38:37.457Z,931.66
2019-02-22T00:39:37.473Z,931.68
2019-02-22T00:40:37.519Z,931.67
2019-02-22T00:41:37.495Z,931.70
2019-02-22T00:42:37.501Z,931.69
2019-02-22T00:43:37.527Z,931.68
2019-02-22T00:44:37.470Z,931.69
2019-02-22T00:45:37.565Z,931.69
2019-02-22T00:46:37.457Z,931.64
2019-02-22T00:47:37.511Z,931.71
2019-02-22T00:48:37.579Z,931.75
2019-02-22T00:49:37.632Z,931.76
2019-02-22T00:50:37.543Z,931.78
2019-02-22T00:51:37.542Z,931.82
2019-02-22T00:52:37.667Z,931.85
2019-02-22T00:53:37.773Z,931.85
2019-02-22T00:54:37.567Z,931.80
2019-02-22T00:55:37.646Z,931.78
2019-02-22T00:56:37.637Z,931.73
2019-02-22T00:57:37.671Z,931.76
2019-02-22T00:58:37.914Z,931.76
2019-02-22T00:59:37.731Z,931.73
2019-02-22T01:00:37.674Z,931.70
2019-02-22T01:01:37.795Z,931.72
2019-02-22T01:02:37.704Z,931.71
2019-02-22T01:03:37.702Z,931.67
2019-02-22T01:04:37.955Z,931.72
2019-02-22T01:05:37.745Z,931.75
2019-02-22T01:06:37.808Z,931.75
2019-02-22T01:07:37.885Z,931.79
2019-02-22T01:08:37.838Z,931.81
2019-02-22T01:09:38.028Z,931.79
2019-02-22T01:10:37.946Z,931.82
2019-02-22T01:11:37.833Z,931.82
2019-02-22T01:12:37.971Z,931.85
2019-02-22T01:13:37.976Z,931.82
2019-02-22T01:14:37.982Z,931.82
2019-02-22T01:15:37.894Z,931.85
2019-02-22T01:16:37.969Z,931.85
2019-02-22T01:17:37.914Z,931.87
2019-02-22T01:18:37.934Z,931.83
2019-02-22T01:19:38.063Z,931.82
2019-02-22T01:20:38.085Z,931.82
2019-02-22T01:21:38.097Z,931.82
2019-02-22T01:22:38.121Z,931.86
2019-02-22T01:23:38.029Z,931.87
2019-02-22T01:24:38.246Z,931.89
2019-02-22T01:25:38.048Z,931.94
2019-02-22T01:26:38.080Z,931.96
2019-02-22T01:27:38.080Z,931.99
2019-02-22T01:28:38.084Z,932.00
2019-02-22T01:29:38.205Z,932.00
2019-02-22T01:30:38.246Z,932.05
2019-02-22T01:31:38.133Z,932.05
2019-02-22T01:32:38.287Z,932.07
2019-02-22T01:33:38.161Z,932.09
2019-02-22T01:34:38.402Z,932.08
2019-02-22T01:35:38.214Z,932.11
2019-02-22T01:36:38.337Z,932.09
2019-02-22T01:37:38.229Z,932.11
2019-02-22T01:38:38.261Z,932.10
2019-02-22T01:39:38.409Z,932.09
2019-02-22T01:40:43.647Z,932.09
2019-02-22T01:41:38.411Z,932.09
2019-02-22T01:42:38.309Z,932.11
2019-02-22T01:43:38.330Z,932.13
2019-02-22T01:44:38.543Z,932.12
2019-02-22T01:45:38.350Z,932.13
2019-02-22T01:46:38.380Z,932.18
2019-02-22T01:47:38.390Z,932.20
2019-02-22T01:48:38.517Z,932.19
2019-02-22T01:49:38.473Z,932.20
2019-02-22T01:50:38.525Z,932.21
2019-02-22T01:51:38.554Z,932.17
2019-02-22T01:52:38.440Z,932.10
2019-02-22T01:53:38.484Z,932.09
2019-02-22T01:54:38.593Z,932.07
2019-02-22T01:55:38.610Z,932.14
2019-02-22T01:56:38.534Z,932.10
2019-02-22T01:57:38.536Z,932.14
2019-02-22T01:58:48.236Z,932.13
2019-02-22T01:59:38.607Z,932.12
2019-02-22T02:00:38.721Z,932.14
2019-02-22T02:01:38.625Z,932.05
2019-02-22T02:02:38.632Z,932.05
2019-02-22T02:03:38.619Z,932.00
2019-02-22T02:04:38.690Z,932.03
2019-02-22T02:05:38.756Z,932.00
2019-02-22T02:06:38.708Z,932.01
2019-02-22T02:07:38.745Z,931.96
2019-02-22T02:08:38.686Z,931.94
2019-02-22T02:09:38.710Z,931.97
2019-02-22T02:10:38.864Z,931.91
2019-02-22T02:11:38.746Z,931.99
2019-02-22T02:12:38.751Z,931.95
2019-02-22T02:13:38.878Z,931.98
2019-02-22T02:14:38.895Z,931.93
2019-02-22T02:15:38.819Z,931.92
2019-02-22T02:16:39.096Z,931.91
2019-02-22T02:17:38.835Z,931.92
2019-02-22T02:18:38.861Z,931.89
2019-02-22T02:19:38.896Z,931.89
2019-02-22T02:20:38.894Z,931.86
2019-02-22T02:21:39.156Z,931.82
2019-02-22T02:22:39.022Z,931.82
2019-02-22T02:23:38.911Z,931.77
2019-02-22T02:24:38.956Z,931.77
2019-02-22T02:25:38.951Z,931.77
2019-02-22T02:26:39.071Z,931.77
2019-02-22T02:27:39.071Z,931.76
2019-02-22T02:28:38.979Z,931.77
2019-02-22T02:29:39.000Z,931.74
2019-02-22T02:30:39.018Z,931.66
2019-02-22T02:31:39.025Z,931.67
2019-02-22T02:32:39.165Z,931.65
2019-02-22T02:33:39.180Z,931.59
2019-02-22T02:34:39.081Z,931.58
2019-02-22T02:35:39.110Z,931.57
2019-02-22T02:36:39.114Z,931.58
2019-02-22T02:37:39.291Z,931.53
2019-02-22T02:38:39.163Z,931.49
2019-02-22T02:39:39.157Z,931.44
2019-02-22T02:40:39.435Z,931.47
2019-02-22T02:41:39.300Z,931.49
2019-02-22T02:42:39.189Z,931.47
2019-02-22T02:43:39.330Z,931.47
2019-02-22T02:44:39.231Z,931.47
2019-02-22T02:45:39.407Z,931.46
2019-02-22T02:46:39.385Z,931.47
2019-02-22T02:47:39.282Z,931.43
2019-02-22T02:48:39.419Z,931.45
2019-02-22T02:49:39.313Z,931.43
2019-02-22T02:50:39.481Z,931.43
2019-02-22T02:51:39.446Z,931.39
2019-02-22T02:52:39.353Z,931.37
2019-02-22T02:53:39.367Z,931.37
2019-02-22T02:54:39.393Z,931.36
2019-02-22T02:55:39.607Z,931.38
2019-02-22T02:56:39.526Z,931.36
2019-02-22T02:57:39.425Z,931.40
2019-02-22T02:58:39.569Z,931.38
2019-02-22T02:59:39.460Z,931.37
2019-02-22T03:00:39.845Z,931.39
2019-02-22T03:01:39.496Z,931.42
2019-02-22T03:02:39.622Z,931.45
2019-02-22T03:03:39.521Z,931.49
2019-02-22T03:04:39.658Z,931.48
2019-02-22T03:05:39.882Z,931.48
2019-02-22T03:06:39.556Z,931.50
2019-02-22T03:07:39.729Z,931.47
2019-02-22T03:08:39.594Z,931.44
2019-02-22T03:09:39.716Z,931.41
2019-02-22T03:10:39.887Z,931.40
2019-02-22T03:11:39.638Z,931.40
2019-02-22T03:12:39.773Z,931.38
2019-02-22T03:13:39.664Z,931.42
2019-02-22T03:14:39.800Z,931.37
2019-02-22T03:15:39.708Z,931.39
2019-02-22T03:16:39.860Z,931.34
2019-02-22T03:17:39.725Z,931.31
2019-02-22T03:18:39.855Z,931.34
2019-02-22T03:19:39.751Z,931.34
2019-02-22T03:20:39.764Z,931.30
2019-02-22T03:21:40.058Z,931.32
2019-02-22T03:22:39.915Z,931.31
2019-02-22T03:23:39.941Z,931.25
2019-02-22T03:24:39.948Z,931.24
2019-02-22T03:25:39.958Z,931.24
2019-02-22T03:26:39.957Z,931.25
2019-02-22T03:27:39.874Z,931.27
2019-02-22T03:28:39.888Z,931.27
2019-02-22T03:29:39.915Z,931.28
2019-02-22T03:30:39.916Z,931.27
2019-02-22T03:31:40.032Z,931.25
2019-02-22T03:32:39.950Z,931.24
2019-02-22T03:33:39.986Z,931.25
2019-02-22T03:34:40.101Z,931.23
2019-02-22T03:35:40.119Z,931.22
2019-02-22T03:36:40.119Z,931.22
2019-02-22T03:37:40.138Z,931.21
2019-02-22T03:38:40.061Z,931.18
2019-02-22T03:39:40.193Z,931.18
2019-02-22T03:40:40.198Z,931.15
2019-02-22T03:41:40.230Z,931.13
2019-02-22T03:42:40.226Z,931.12
2019-02-22T03:43:40.120Z,931.12
2019-02-22T03:44:40.126Z,931.12
2019-02-22T03:45:40.261Z,931.09
2019-02-22T03:46:40.258Z,931.13
2019-02-22T03:47:40.168Z,931.07
2019-02-22T03:48:40.314Z,931.11
2019-02-22T03:49:40.318Z,931.10
2019-02-22T03:50:40.222Z,931.11
2019-02-22T03:51:40.446Z,931.13
2019-02-22T03:52:40.362Z,931.07
2019-02-22T03:53:40.287Z,931.07
2019-02-22T03:54:40.297Z,931.07
2019-02-22T03:55:40.421Z,931.03
2019-02-22T03:56:40.416Z,931.10
2019-02-22T03:57:40.401Z,931.09
2019-02-22T03:58:40.343Z,931.03
2019-02-22T03:59:40.365Z,931.04
2019-02-22T04:00:40.381Z,931.02
2019-02-22T04:01:40.500Z,931.01
2019-02-22T04:02:40.409Z,931.00
2019-02-22T04:03:40.409Z,931.00
2019-02-22T04:04:40.553Z,931.02
2019-02-22T04:05:40.457Z,931.01
2019-02-22T04:06:40.635Z,931.01
2019-02-22T04:07:40.588Z,931.01
2019-02-22T04:08:40.488Z,931.02
2019-02-22T04:09:40.631Z,931.06
2019-02-22T04:10:40.649Z,931.08
2019-02-22T04:11:45.636Z,931.09
2019-02-22T04:12:40.559Z,931.06
2019-02-22T04:13:40.693Z,931.07
2019-02-22T04:14:40.586Z,931.05
2019-02-22T04:15:40.720Z,931.04
2019-02-22T04:16:40.789Z,931.06
2019-02-22T04:17:40.754Z,931.07
2019-02-22T04:18:40.769Z,931.03
2019-02-22T04:19:40.668Z,931.04
2019-02-22T04:20:40.779Z,930.99
2019-02-22T04:21:40.802Z,930.97
2019-02-22T04:22:44.103Z,930.97
2019-02-22T04:23:40.731Z,930.99
2019-02-22T04:24:40.847Z,930.95
2019-02-22T04:25:40.970Z,930.96
2019-02-22T04:26:40.775Z,930.93
2019-02-22T04:27:40.778Z,930.93
2019-02-22T04:28:40.906Z,930.96
2019-02-22T04:29:40.925Z,930.96
2019-02-22T04:30:40.983Z,930.98
2019-02-22T04:31:40.868Z,931.00
2019-02-22T04:32:40.863Z,930.96
2019-02-22T04:33:40.984Z,930.93
2019-02-22T04:34:40.910Z,930.91
2019-02-22T04:35:41.112Z,930.85
2019-02-22T04:36:40.936Z,930.80
2019-02-22T04:37:40.937Z,930.78
2019-02-22T04:38:40.961Z,930.78
2019-02-22T04:39:41.016Z,930.79
2019-02-22T04:40:41.148Z,930.77
2019-02-22T04:41:41.185Z,930.77
2019-02-22T04:42:41.007Z,930.77
2019-02-22T04:43:41.146Z,930.77
2019-02-22T04:44:41.157Z,930.74
2019-02-22T04:45:41.274Z,930.73
2019-02-22T04:46:41.068Z,930.72
2019-02-22T04:47:41.078Z,930.74
2019-02-22T04:48:41.219Z,930.74
2019-02-22T04:49:41.111Z,930.71
2019-02-22T04:50:41.252Z,930.69
2019-02-22T04:51:41.145Z,930.71
2019-02-22T04:52:41.285Z,930.67
2019-02-22T04:53:41.169Z,930.67
2019-02-22T04:54:41.195Z,930.63
2019-02-22T04:55:41.417Z,930.59
2019-02-22T04:56:41.345Z,930.61
2019-02-22T04:57:41.229Z,930.60
2019-02-22T04:58:41.364Z,930.57
2019-02-22T04:59:41.381Z,930.56
2019-02-22T05:00:41.484Z,930.60
2019-02-22T05:01:41.425Z,930.58
2019-02-22T05:02:41.421Z,930.54
2019-02-22T05:03:41.437Z,930.55
2019-02-22T05:04:41.450Z,930.53
2019-02-22T05:05:41.402Z,930.48
2019-02-22T05:06:41.495Z,930.44
2019-02-22T05:07:41.391Z,930.47
2019-02-22T05:08:41.412Z,930.41
2019-02-22T05:09:41.540Z,930.41
2019-02-22T05:10:41.702Z,930.43
2019-02-22T05:11:41.566Z,930.42
2019-02-22T05:12:41.464Z,930.41
2019-02-22T05:13:41.597Z,930.39
2019-02-22T05:14:41.523Z,930.37
2019-02-22T05:15:41.681Z,930.32
2019-02-22T05:16:41.530Z,930.32
2019-02-22T05:17:41.530Z,930.38
2019-02-22T05:18:41.774Z,930.42
2019-02-22T05:19:41.574Z,930.40
2019-02-22T05:20:41.622Z,930.42
2019-02-22T05:21:41.606Z,930.39
2019-02-22T05:22:41.722Z,930.40
2019-02-22T05:23:41.719Z,930.39
2019-02-22T05:24:41.639Z,930.43
2019-02-22T05:25:41.675Z,930.39
2019-02-22T05:26:41.796Z,930.44
2019-02-22T05:27:41.813Z,930.45
2019-02-22T05:28:41.754Z,930.40
2019-02-22T05:29:41.851Z,930.40
2019-02-22T05:30:41.739Z,930.39
2019-02-22T05:31:41.755Z,930.39
2019-02-22T05:32:41.753Z,930.43
2019-02-22T05:33:41.950Z,930.44
2019-02-22T05:34:41.794Z,930.42
2019-02-22T05:35:41.823Z,930.39
2019-02-22T05:36:44.170Z,930.40
2019-02-22T05:37:41.847Z,930.41
2019-02-22T05:38:41.993Z,930.36
2019-02-22T05:39:42.005Z,930.37
2019-02-22T05:40:41.881Z,930.41
2019-02-22T05:41:41.881Z,930.42
2019-02-22T05:42:42.025Z,930.40
2019-02-22T05:43:42.154Z,930.39
2019-02-22T05:44:41.940Z,930.38
2019-02-22T05:45:42.081Z,930.36
2019-02-22T05:46:42.097Z,930.35
2019-02-22T05:47:42.111Z,930.37
2019-02-22T05:48:42.107Z,930.34
2019-02-22T05:49:42.143Z,930.40
2019-02-22T05:50:42.042Z,930.38
2019-02-22T05:51:42.169Z,930.38
2019-02-22T05:52:42.174Z,930.37
2019-02-22T05:53:42.195Z,930.33
2019-02-22T05:54:42.088Z,930.34
2019-02-22T05:55:44.310Z,930.31
2019-02-22T05:56:42.115Z,930.33
2019-02-22T05:57:42.264Z,930.33
2019-02-22T05:58:42.378Z,930.38
2019-02-22T05:59:42.171Z,930.36
2019-02-22T06:00:42.188Z,930.38
2019-02-22T06:01:42.314Z,930.38
2019-02-22T06:02:42.228Z,930.39
2019-02-22T06:03:42.444Z,930.43
2019-02-22T06:04:42.290Z,930.44
2019-02-22T06:05:42.379Z,930.44
2019-02-22T06:06:42.268Z,930.47
2019-02-22T06:07:42.293Z,930.50
2019-02-22T06:08:42.446Z,930.48
2019-02-22T06:09:42.307Z,930.48
2019-02-22T06:10:42.330Z,930.46
2019-02-22T06:11:42.469Z,930.43
2019-02-22T06:12:42.377Z,930.39
2019-02-22T06:13:42.604Z,930.34
2019-02-22T06:14:42.419Z,930.35
2019-02-22T06:15:42.537Z,930.29
2019-02-22T06:16:42.546Z,930.25
2019-02-22T06:17:42.552Z,930.26
2019-02-22T06:18:42.550Z,930.23
2019-02-22T06:19:42.449Z,930.22
2019-02-22T06:20:42.499Z,930.25
2019-02-22T06:21:42.489Z,930.28
2019-02-22T06:22:42.640Z,930.33
2019-02-22T06:23:42.580Z,930.34
2019-02-22T06:24:42.659Z,930.36
2019-02-22T06:25:42.671Z,930.33
2019-02-22T06:26:42.698Z,930.29
2019-02-22T06:27:42.594Z,930.27
2019-02-22T06:28:42.817Z,930.25
2019-02-22T06:29:42.731Z,930.28
2019-02-22T06:30:42.765Z,930.28
2019-02-22T06:31:42.665Z,930.26
2019-02-22T06:32:42.679Z,930.31
2019-02-22T06:33:42.924Z,930.31
2019-02-22T06:34:42.822Z,930.29
2019-02-22T06:35:42.731Z,930.30
2019-02-22T06:36:42.729Z,930.36
2019-02-22T06:37:42.855Z,930.36
2019-02-22T06:38:42.809Z,930.36
2019-02-22T06:39:42.751Z,930.38
2019-02-22T06:40:42.782Z,930.38
2019-02-22T06:41:42.794Z,930.39
2019-02-22T06:42:45.772Z,930.38
2019-02-22T06:43:42.994Z,930.36
2019-02-22T06:44:42.847Z,930.30
2019-02-22T06:45:43.085Z,930.29
2019-02-22T06:46:42.883Z,930.29
2019-02-22T06:47:43.009Z,930.29
2019-02-22T06:48:43.021Z,930.26
2019-02-22T06:49:44.499Z,930.31
2019-02-22T06:50:43.086Z,930.27
2019-02-22T06:51:42.971Z,930.30
2019-02-22T06:52:42.983Z,930.32
2019-02-22T06:53:42.983Z,930.33
2019-02-22T06:54:42.998Z,930.40
2019-02-22T06:55:43.176Z,930.41
2019-02-22T06:56:43.023Z,930.45
2019-02-22T06:57:43.171Z,930.53
2019-02-22T06:58:43.179Z,930.53
2019-02-22T06:59:43.185Z,930.57
2019-02-22T07:00:43.315Z,930.61
2019-02-22T07:01:43.096Z,930.61
2019-02-22T07:02:43.230Z,930.60
2019-02-22T07:03:43.257Z,930.58
2019-02-22T07:04:43.143Z,930.55
2019-02-22T07:05:43.260Z,930.54
2019-02-22T07:06:43.184Z,930.52
2019-02-22T07:07:43.319Z,930.54
2019-02-22T07:08:43.326Z,930.52
2019-02-22T07:09:43.348Z,930.52
2019-02-22T07:10:43.513Z,930.52
2019-02-22T07:11:43.379Z,930.54
2019-02-22T07:12:43.389Z,930.46
2019-02-22T07:13:43.416Z,930.53
2019-02-22T07:14:43.430Z,930.54
2019-02-22T07:15:43.474Z,930.52
2019-02-22T07:16:43.443Z,930.52
2019-02-22T07:17:43.340Z,930.51
2019-02-22T07:18:43.363Z,930.51
2019-02-22T07:19:43.381Z,930.55
2019-02-22T07:20:43.604Z,930.56
2019-02-22T07:21:52.139Z,930.58
2019-02-22T07:22:43.423Z,930.58
2019-02-22T07:23:43.445Z,930.60
2019-02-22T07:24:43.570Z,930.63
2019-02-22T07:25:43.583Z,930.62
2019-02-22T07:26:43.486Z,930.66
2019-02-22T07:27:43.508Z,930.69
2019-02-22T07:28:43.510Z,930.72
2019-02-22T07:29:43.524Z,930.73
2019-02-22T07:30:43.767Z,930.72
2019-02-22T07:31:43.559Z,930.69
2019-02-22T07:32:43.709Z,930.67
2019-02-22T07:33:43.585Z,930.67
2019-02-22T07:34:43.612Z,930.66
2019-02-22T07:35:43.886Z,930.72
2019-02-22T07:36:43.762Z,930.73
2019-02-22T07:37:43.776Z,930.80
2019-02-22T07:38:43.776Z,930.81
2019-02-22T07:39:43.795Z,930.82
2019-02-22T07:40:43.902Z,930.83
2019-02-22T07:41:43.834Z,930.79
2019-02-22T07:42:43.847Z,930.81
2019-02-22T07:43:43.721Z,930.77
2019-02-22T07:44:43.950Z,930.80
2019-02-22T07:45:43.815Z,930.77
2019-02-22T07:46:43.782Z,930.77
2019-02-22T07:47:43.808Z,930.75
2019-02-22T07:48:43.810Z,930.78
2019-02-22T07:49:43.836Z,930.76
2019-02-22T07:50:43.998Z,930.74
2019-02-22T07:51:43.974Z,930.72
2019-02-22T07:52:45.288Z,930.70
2019-02-22T07:53:44.012Z,930.73
2019-02-22T07:54:43.900Z,930.74
2019-02-22T07:55:44.137Z,930.76
2019-02-22T07:56:43.943Z,930.73
2019-02-22T07:57:44.076Z,930.75
2019-02-22T07:58:44.090Z,930.72
2019-02-22T07:59:43.992Z,930.75
2019-02-22T08:00:44.105Z,930.73
2019-02-22T08:01:47.562Z,930.75
2019-02-22T08:02:44.155Z,930.73
2019-02-22T08:03:44.083Z,930.76
2019-02-22T08:04:44.187Z,930.77
2019-02-22T08:05:44.289Z,930.79
2019-02-22T08:06:44.211Z,930.81
2019-02-22T08:07:44.228Z,930.78
2019-02-22T08:08:44.229Z,930.79
2019-02-22T08:09:44.249Z,930.77
2019-02-22T08:10:44.344Z,930.73
2019-02-22T08:11:44.173Z,930.78
2019-02-22T08:12:44.288Z,930.77
2019-02-22T08:13:44.311Z,930.80
2019-02-22T08:14:44.217Z,930.81
2019-02-22T08:15:44.331Z,930.82
2019-02-22T08:16:44.246Z,930.86
2019-02-22T08:17:44.363Z,930.87
2019-02-22T08:18:44.269Z,930.88
2019-02-22T08:19:44.398Z,930.88
2019-02-22T08:20:44.475Z,930.92
2019-02-22T08:21:44.307Z,930.89
2019-02-22T08:22:44.454Z,930.92
2019-02-22T08:23:44.466Z,930.87
2019-02-22T08:24:44.369Z,930.88
2019-02-22T08:25:44.636Z,930.85
2019-02-22T08:26:44.397Z,930.86
2019-02-22T08:27:53.032Z,930.80
2019-02-22T08:28:44.416Z,930.79
2019-02-22T08:29:44.554Z,930.77
2019-02-22T08:30:44.623Z,930.80
2019-02-22T08:31:44.475Z,930.80
2019-02-22T08:32:44.600Z,930.79
2019-02-22T08:33:44.709Z,930.83
2019-02-22T08:34:45.903Z,930.82
2019-02-22T08:35:44.539Z,930.80
2019-02-22T08:36:44.527Z,930.83
2019-02-22T08:37:44.663Z,930.85
2019-02-22T08:38:44.741Z,930.92
2019-02-22T08:39:44.696Z,930.93
2019-02-22T08:40:44.708Z,930.95
2019-02-22T08:41:44.637Z,930.96
2019-02-22T08:42:44.783Z,930.97
2019-02-22T08:43:44.674Z,930.97
2019-02-22T08:44:44.658Z,930.96
2019-02-22T08:45:44.800Z,930.96
2019-02-22T08:46:44.683Z,931.00
2019-02-22T08:47:44.698Z,931.04
2019-02-22T08:48:44.829Z,931.03
2019-02-22T08:49:44.859Z,931.04
2019-02-22T08:50:44.743Z,931.07
2019-02-22T08:51:44.756Z,931.10
2019-02-22T08:52:44.905Z,931.09
2019-02-22T08:53:44.842Z,931.12
2019-02-22T08:54:47.340Z,931.13
2019-02-22T08:55:44.858Z,931.11
2019-02-22T08:56:44.965Z,931.11
2019-02-22T08:57:44.843Z,931.17
2019-02-22T08:58:45.093Z,931.13
2019-02-22T08:59:45.006Z,931.16
2019-02-22T09:00:44.894Z,931.14
2019-02-22T09:01:44.892Z,931.17
2019-02-22T09:02:45.040Z,931.16
2019-02-22T09:03:50.215Z,931.15
2019-02-22T09:04:44.953Z,931.20
2019-02-22T09:05:44.970Z,931.20
2019-02-22T09:06:45.109Z,931.28
2019-02-22T09:07:45.126Z,931.25
2019-02-22T09:08:45.079Z,931.34
2019-02-22T09:09:45.159Z,931.32
2019-02-22T09:10:45.063Z,931.33
2019-02-22T09:11:45.185Z,931.32
2019-02-22T09:12:45.073Z,931.34
2019-02-22T09:13:45.258Z,931.38
2019-02-22T09:14:45.220Z,931.38
2019-02-22T09:15:45.252Z,931.42
2019-02-22T09:16:45.148Z,931.40
2019-02-22T09:17:45.158Z,931.45
2019-02-22T09:18:45.391Z,931.47
2019-02-22T09:19:45.198Z,931.46
2019-02-22T09:20:45.207Z,931.50
2019-02-22T09:21:45.242Z,931.53
2019-02-22T09:22:45.355Z,931.57
2019-02-22T09:23:45.354Z,931.61
2019-02-22T09:24:45.263Z,931.64
2019-02-22T09:25:45.277Z,931.61
2019-02-22T09:26:45.309Z,931.66
2019-02-22T09:27:45.420Z,931.65
2019-02-22T09:28:45.479Z,931.64
2019-02-22T09:29:45.340Z,931.68
2019-02-22T09:30:45.353Z,931.69
2019-02-22T09:31:45.588Z,931.70
2019-02-22T09:32:45.374Z,931.64
2019-02-22T09:33:45.522Z,931.66
2019-02-22T09:34:46.252Z,931.68
2019-02-22T09:35:45.542Z,931.70
2019-02-22T09:36:45.618Z,931.72
2019-02-22T09:37:45.582Z,931.75
2019-02-22T09:38:45.587Z,931.74
2019-02-22T09:39:45.605Z,931.78
2019-02-22T09:40:45.671Z,931.79
2019-02-22T09:41:45.649Z,931.79
2019-02-22T09:42:45.649Z,931.83
2019-02-22T09:43:54.679Z,931.84
2019-02-22T09:44:45.569Z,931.88
2019-02-22T09:45:45.758Z,931.93
2019-02-22T09:46:45.597Z,931.92
2019-02-22T09:47:45.667Z,931.91
2019-02-22T09:48:45.903Z,931.92
2019-02-22T09:49:45.769Z,932.00
2019-02-22T09:50:45.702Z,932.00
2019-02-22T09:51:45.686Z,931.99
2019-02-22T09:52:45.812Z,932.01
2019-02-22T09:53:45.766Z,932.01
2019-02-22T09:54:45.726Z,932.02
2019-02-22T09:55:45.741Z,932.03
2019-02-22T09:56:45.869Z,932.09
2019-02-22T09:57:45.768Z,932.07
2019-02-22T09:58:45.933Z,932.10
2019-02-22T09:59:45.933Z,932.13
2019-02-22T10:00:45.809Z,932.16
2019-02-22T10:01:45.949Z,932.16
2019-02-22T10:02:45.850Z,932.21
2019-02-22T10:03:46.210Z,932.19
2019-02-22T10:04:54.492Z,932.17
2019-02-22T10:05:46.027Z,932.23
2019-02-22T10:06:45.919Z,932.20
2019-02-22T10:07:46.054Z,932.17
2019-02-22T10:08:46.058Z,932.18
2019-02-22T10:09:46.075Z,932.18
2019-02-22T10:10:46.067Z,932.21
2019-02-22T10:11:46.118Z,932.26
2019-02-22T10:12:46.123Z,932.25
2019-02-22T10:13:46.241Z,932.26
2019-02-22T10:14:46.165Z,932.25
2019-02-22T10:15:46.073Z,932.26
2019-02-22T10:16:46.208Z,932.25
2019-02-22T10:17:46.109Z,932.30
2019-02-22T10:18:46.166Z,932.27
2019-02-22T10:19:46.259Z,932.27
2019-02-22T10:20:46.269Z,932.29
2019-02-22T10:21:46.423Z,932.30
2019-02-22T10:22:46.181Z,932.30
2019-02-22T10:23:46.320Z,932.36
2019-02-22T10:24:46.341Z,932.33
2019-02-22T10:25:46.226Z,932.36
2019-02-22T10:26:46.303Z,932.37
2019-02-22T10:27:46.380Z,932.38
2019-02-22T10:28:46.285Z,932.40
2019-02-22T10:29:46.301Z,932.42
2019-02-22T10:30:46.324Z,932.40
2019-02-22T10:31:46.437Z,932.44
2019-02-22T10:32:46.483Z,932.46
2019-02-22T10:33:46.496Z,932.46
2019-02-22T10:34:46.521Z,932.45
2019-02-22T10:35:46.520Z,932.45
2019-02-22T10:36:46.571Z,932.46
2019-02-22T10:37:46.443Z,932.42
2019-02-22T10:38:46.459Z,932.44
2019-02-22T10:39:46.596Z,932.45
2019-02-22T10:40:46.486Z,932.44
2019-02-22T10:41:46.581Z,932.39
2019-02-22T10:42:46.539Z,932.37
2019-02-22T10:43:46.685Z,932.37
2019-02-22T10:44:46.696Z,932.36
2019-02-22T10:45:46.602Z,932.40
2019-02-22T10:46:46.651Z,932.38
2019-02-22T10:47:46.753Z,932.41
2019-02-22T10:48:46.659Z,932.48
2019-02-22T10:49:47.125Z,932.44
2019-02-22T10:50:46.702Z,932.46
2019-02-22T10:51:47.122Z,932.49
2019-02-22T10:52:47.058Z,932.50
2019-02-22T10:53:46.859Z,932.47
2019-02-22T10:54:47.081Z,932.48
2019-02-22T10:55:46.779Z,932.49
2019-02-22T10:56:47.064Z,932.51
2019-02-22T10:57:46.933Z,932.55
2019-02-22T10:58:47.024Z,932.61
2019-02-22T10:59:46.969Z,932.62
2019-02-22T11:00:47.105Z,932.62
2019-02-22T11:01:46.966Z,932.65
2019-02-22T11:02:46.902Z,932.74
2019-02-22T11:03:46.934Z,932.77
2019-02-22T11:04:46.954Z,932.70
2019-02-22T11:05:47.092Z,932.68
2019-02-22T11:06:47.029Z,932.70
2019-02-22T11:07:47.136Z,932.65
2019-02-22T11:08:47.158Z,932.77
2019-02-22T11:09:47.045Z,932.82
2019-02-22T11:10:47.164Z,932.89
2019-02-22T11:11:47.266Z,932.85
2019-02-22T11:12:47.123Z,932.90
2019-02-22T11:13:47.148Z,932.85
2019-02-22T11:14:47.144Z,932.87
2019-02-22T11:15:47.175Z,932.80
2019-02-22T11:16:47.293Z,932.73
2019-02-22T11:17:47.214Z,932.74
2019-02-22T11:18:47.233Z,932.79
2019-02-22T11:19:47.275Z,932.79
2019-02-22T11:20:47.282Z,932.76
2019-02-22T11:21:47.533Z,932.81
2019-02-22T11:22:47.327Z,932.79
2019-02-22T11:23:47.347Z,932.85
2019-02-22T11:24:47.375Z,932.92
2019-02-22T11:25:47.392Z,932.87
2019-02-22T11:26:47.525Z,932.89
2019-02-22T11:27:47.436Z,932.85
2019-02-22T11:28:47.586Z,932.84
2019-02-22T11:29:49.348Z,932.86
2019-02-22T11:30:47.504Z,932.90
2019-02-22T11:31:47.629Z,933.08
2019-02-22T11:32:47.554Z,933.16
2019-02-22T11:33:47.692Z,933.19
2019-02-22T11:34:47.709Z,933.06
2019-02-22T11:35:47.602Z,933.15
2019-02-22T11:36:48.042Z,933.17
2019-02-22T11:37:47.780Z,933.20
2019-02-22T11:38:47.689Z,933.12
2019-02-22T11:39:47.831Z,933.15
2019-02-22T11:40:48.099Z,933.16
2019-02-22T11:41:47.878Z,933.20
2019-02-22T11:42:48.061Z,933.16
2019-02-22T11:43:47.807Z,933.11
2019-02-22T11:44:48.135Z,933.07
2019-02-22T11:45:49.920Z,933.13
2019-02-22T11:46:47.878Z,933.24
2019-02-22T11:47:48.198Z,933.16
2019-02-22T11:48:48.071Z,933.13
2019-02-22T11:49:48.052Z,933.11
2019-02-22T11:50:47.980Z,933.23
2019-02-22T11:51:48.131Z,933.25
2019-02-22T11:52:48.175Z,933.01
2019-02-22T11:53:48.167Z,933.02
2019-02-22T11:54:48.199Z,932.94
2019-02-22T11:55:48.086Z,933.02
2019-02-22T11:56:48.173Z,933.13
2019-02-22T11:57:48.327Z,933.01
2019-02-22T11:58:48.194Z,932.99
2019-02-22T11:59:48.227Z,933.01
2019-02-22T12:01:48.367Z,933.11
2019-02-22T12:02:48.500Z,933.20
2019-02-22T12:03:48.290Z,933.24
2019-02-22T12:04:48.445Z,933.20
2019-02-22T12:05:48.459Z,933.14
2019-02-22T12:06:48.492Z,933.19
2019-02-22T12:07:48.543Z,933.20
2019-02-22T12:08:48.432Z,933.27
2019-02-22T12:09:48.559Z,933.29
2019-02-22T12:10:48.585Z,933.24
2019-02-22T12:11:48.502Z,933.60
2019-02-22T12:12:48.669Z,933.55
2019-02-22T12:13:48.512Z,933.46
2019-02-22T12:14:51.966Z,933.19
2019-02-22T12:15:48.581Z,933.28
2019-02-22T12:16:48.590Z,933.28
2019-02-22T12:17:48.657Z,933.28
2019-02-22T12:18:48.634Z,933.28
2019-02-22T12:19:48.658Z,933.37
2019-02-22T12:20:48.724Z,933.33
2019-02-22T12:21:48.706Z,933.37
2019-02-22T12:22:48.954Z,933.35
2019-02-22T12:23:48.765Z,933.27
2019-02-22T12:24:48.771Z,933.33
2019-02-22T12:25:48.788Z,933.36
2019-02-22T12:26:48.818Z,933.46
2019-02-22T12:27:48.893Z,933.53
2019-02-22T12:28:48.872Z,933.49
2019-02-22T12:29:49.014Z,934.88